sensor_id;sensor_type;location;lat;lon;timestamp;P1;durP1;ratioP1;P2;durP2;ratioP2
19358;SDS011;9815;52.334;20.890;2023-05-02T00:00:07;8.70;;;4.20;;
19358;SDS011;9815;52.334;20.890;2023-05-02T00:02:37;9.40;;;4.30;;
19358;SDS011;9815;52.334;20.890;2023-05-02T00:05:05;12.07;;;4.60;;
19358;SDS011;9815;52.334;20.890;2023-05-02T00:07:34;11.50;;;3.90;;
19358;SDS011;9815;52.334;20.890;2023-05-02T00:10:03;8.47;;;4.17;;
19358;SDS011;9815;52.334;20.890;2023-05-02T00:12:32;10.63;;;4.60;;
19358;SDS011;9815;52.334;20.890;2023-05-02T00:15:00;9.60;;;4.70;;
19358;SDS011;9815;52.334;20.890;2023-05-02T00:17:28;9.27;;;3.90;;
19358;SDS011;9815;52.334;20.890;2023-05-02T00:19:58;10.03;;;4.33;;
19358;SDS011;9815;52.334;20.890;2023-05-02T00:22:27;9.80;;;4.50;;
19358;SDS011;9815;52.334;20.890;2023-05-02T00:24:55;10.97;;;4.70;;
19358;SDS011;9815;52.334;20.890;2023-05-02T00:27:23;15.10;;;4.67;;
19358;SDS011;9815;52.334;20.890;2023-05-02T00:29:52;18.80;;;4.30;;
19358;SDS011;9815;52.334;20.890;2023-05-02T00:32:20;84.77;;;5.67;;
19358;SDS011;9815;52.334;20.890;2023-05-02T00:34:48;9.63;;;4.17;;
19358;SDS011;9815;52.334;20.890;2023-05-02T00:37:18;9.27;;;4.23;;
19358;SDS011;9815;52.334;20.890;2023-05-02T00:39:46;12.57;;;4.27;;
19358;SDS011;9815;52.334;20.890;2023-05-02T00:42:14;9.67;;;4.37;;
19358;SDS011;9815;52.334;20.890;2023-05-02T00:44:42;10.07;;;4.30;;
19358;SDS011;9815;52.334;20.890;2023-05-02T00:47:12;11.07;;;4.17;;
19358;SDS011;9815;52.334;20.890;2023-05-02T00:49:41;9.53;;;4.13;;
19358;SDS011;9815;52.334;20.890;2023-05-02T00:52:09;8.67;;;4.23;;
19358;SDS011;9815;52.334;20.890;2023-05-02T00:54:38;9.70;;;4.60;;
19358;SDS011;9815;52.334;20.890;2023-05-02T00:57:06;9.03;;;4.57;;
19358;SDS011;9815;52.334;20.890;2023-05-02T00:59:35;12.20;;;4.27;;
19358;SDS011;9815;52.334;20.890;2023-05-02T01:02:07;11.63;;;4.30;;
19358;SDS011;9815;52.334;20.890;2023-05-02T01:04:51;10.03;;;4.20;;
19358;SDS011;9815;52.334;20.890;2023-05-02T01:07:34;10.90;;;4.40;;
19358;SDS011;9815;52.334;20.890;2023-05-02T01:10:24;10.00;;;4.30;;
19358;SDS011;9815;52.334;20.890;2023-05-02T01:13:02;9.43;;;4.37;;
19358;SDS011;9815;52.334;20.890;2023-05-02T01:15:35;10.63;;;4.47;;
19358;SDS011;9815;52.334;20.890;2023-05-02T01:18:05;10.50;;;4.27;;
19358;SDS011;9815;52.334;20.890;2023-05-02T01:20:37;7.80;;;3.60;;
19358;SDS011;9815;52.334;20.890;2023-05-02T01:23:10;9.60;;;3.97;;
19358;SDS011;9815;52.334;20.890;2023-05-02T01:25:51;9.23;;;4.20;;
19358;SDS011;9815;52.334;20.890;2023-05-02T01:28:32;6.90;;;3.63;;
19358;SDS011;9815;52.334;20.890;2023-05-02T01:31:06;9.90;;;4.00;;
19358;SDS011;9815;52.334;20.890;2023-05-02T01:33:34;9.17;;;4.43;;
19358;SDS011;9815;52.334;20.890;2023-05-02T01:36:04;8.17;;;4.00;;
19358;SDS011;9815;52.334;20.890;2023-05-02T01:38:34;8.43;;;4.00;;
19358;SDS011;9815;52.334;20.890;2023-05-02T01:41:05;11.47;;;4.30;;
19358;SDS011;9815;52.334;20.890;2023-05-02T01:43:35;8.83;;;3.67;;
19358;SDS011;9815;52.334;20.890;2023-05-02T01:46:06;9.23;;;4.00;;
19358;SDS011;9815;52.334;20.890;2023-05-02T01:48:37;9.13;;;4.00;;
19358;SDS011;9815;52.334;20.890;2023-05-02T01:51:07;9.77;;;3.90;;
19358;SDS011;9815;52.334;20.890;2023-05-02T01:53:38;7.23;;;3.73;;
19358;SDS011;9815;52.334;20.890;2023-05-02T01:56:07;13.60;;;4.17;;
19358;SDS011;9815;52.334;20.890;2023-05-02T01:58:35;8.43;;;4.00;;
19358;SDS011;9815;52.334;20.890;2023-05-02T02:01:06;8.97;;;3.83;;
19358;SDS011;9815;52.334;20.890;2023-05-02T02:03:37;9.40;;;3.70;;
19358;SDS011;9815;52.334;20.890;2023-05-02T02:06:05;7.33;;;3.60;;
19358;SDS011;9815;52.334;20.890;2023-05-02T02:08:33;9.30;;;4.07;;
19358;SDS011;9815;52.334;20.890;2023-05-02T02:11:03;6.53;;;3.73;;
19358;SDS011;9815;52.334;20.890;2023-05-02T02:13:36;9.33;;;3.70;;
19358;SDS011;9815;52.334;20.890;2023-05-02T02:16:11;9.07;;;3.77;;
19358;SDS011;9815;52.334;20.890;2023-05-02T02:18:45;8.33;;;3.90;;
19358;SDS011;9815;52.334;20.890;2023-05-02T02:21:15;13.97;;;4.10;;
19358;SDS011;9815;52.334;20.890;2023-05-02T02:23:45;10.83;;;4.20;;
19358;SDS011;9815;52.334;20.890;2023-05-02T02:26:15;8.67;;;4.50;;
19358;SDS011;9815;52.334;20.890;2023-05-02T02:28:47;9.90;;;4.23;;
19358;SDS011;9815;52.334;20.890;2023-05-02T02:31:16;6.73;;;3.80;;
19358;SDS011;9815;52.334;20.890;2023-05-02T02:33:44;7.13;;;3.90;;
19358;SDS011;9815;52.334;20.890;2023-05-02T02:36:14;12.53;;;4.50;;
19358;SDS011;9815;52.334;20.890;2023-05-02T02:38:49;8.30;;;4.40;;
19358;SDS011;9815;52.334;20.890;2023-05-02T02:41:26;10.03;;;4.03;;
19358;SDS011;9815;52.334;20.890;2023-05-02T02:43:59;11.20;;;4.57;;
19358;SDS011;9815;52.334;20.890;2023-05-02T02:46:38;9.53;;;4.10;;
19358;SDS011;9815;52.334;20.890;2023-05-02T02:49:17;12.13;;;4.30;;
19358;SDS011;9815;52.334;20.890;2023-05-02T02:52:00;8.97;;;4.17;;
19358;SDS011;9815;52.334;20.890;2023-05-02T02:54:34;12.57;;;5.20;;
19358;SDS011;9815;52.334;20.890;2023-05-02T02:57:11;8.63;;;4.77;;
19358;SDS011;9815;52.334;20.890;2023-05-02T02:59:48;10.20;;;4.33;;
19358;SDS011;9815;52.334;20.890;2023-05-02T03:02:25;10.70;;;4.63;;
19358;SDS011;9815;52.334;20.890;2023-05-02T03:04:56;9.83;;;4.33;;
19358;SDS011;9815;52.334;20.890;2023-05-02T03:07:26;7.93;;;4.33;;
19358;SDS011;9815;52.334;20.890;2023-05-02T03:09:56;12.03;;;4.60;;
19358;SDS011;9815;52.334;20.890;2023-05-02T03:12:25;10.27;;;4.57;;
19358;SDS011;9815;52.334;20.890;2023-05-02T03:14:53;7.80;;;4.10;;
19358;SDS011;9815;52.334;20.890;2023-05-02T03:17:33;9.77;;;4.30;;
19358;SDS011;9815;52.334;20.890;2023-05-02T03:20:01;13.50;;;4.60;;
19358;SDS011;9815;52.334;20.890;2023-05-02T03:22:31;10.73;;;4.30;;
19358;SDS011;9815;52.334;20.890;2023-05-02T03:24:59;10.37;;;4.43;;
19358;SDS011;9815;52.334;20.890;2023-05-02T03:27:27;9.83;;;3.87;;
19358;SDS011;9815;52.334;20.890;2023-05-02T03:29:59;9.80;;;4.10;;
19358;SDS011;9815;52.334;20.890;2023-05-02T03:32:29;11.23;;;4.73;;
19358;SDS011;9815;52.334;20.890;2023-05-02T03:34:59;9.90;;;4.40;;
19358;SDS011;9815;52.334;20.890;2023-05-02T03:37:34;11.13;;;4.53;;
19358;SDS011;9815;52.334;20.890;2023-05-02T03:40:02;11.33;;;4.27;;
19358;SDS011;9815;52.334;20.890;2023-05-02T03:42:30;12.50;;;4.93;;
19358;SDS011;9815;52.334;20.890;2023-05-02T03:44:58;8.73;;;4.33;;
19358;SDS011;9815;52.334;20.890;2023-05-02T03:47:27;8.30;;;4.30;;
19358;SDS011;9815;52.334;20.890;2023-05-02T03:49:55;8.87;;;4.10;;
19358;SDS011;9815;52.334;20.890;2023-05-02T03:52:27;12.43;;;4.77;;
19358;SDS011;9815;52.334;20.890;2023-05-02T03:54:56;12.67;;;5.47;;
19358;SDS011;9815;52.334;20.890;2023-05-02T03:57:24;12.30;;;4.43;;
19358;SDS011;9815;52.334;20.890;2023-05-02T03:59:54;12.17;;;4.60;;
19358;SDS011;9815;52.334;20.890;2023-05-02T04:02:26;8.47;;;4.03;;
19358;SDS011;9815;52.334;20.890;2023-05-02T04:04:55;10.53;;;4.50;;
19358;SDS011;9815;52.334;20.890;2023-05-02T04:07:23;7.60;;;3.80;;
19358;SDS011;9815;52.334;20.890;2023-05-02T04:09:59;11.53;;;4.30;;
19358;SDS011;9815;52.334;20.890;2023-05-02T04:12:31;11.70;;;4.80;;
19358;SDS011;9815;52.334;20.890;2023-05-02T04:15:00;11.63;;;4.90;;
19358;SDS011;9815;52.334;20.890;2023-05-02T04:17:28;12.27;;;4.83;;
19358;SDS011;9815;52.334;20.890;2023-05-02T04:19:56;12.10;;;4.50;;
19358;SDS011;9815;52.334;20.890;2023-05-02T04:22:28;8.90;;;4.67;;
19358;SDS011;9815;52.334;20.890;2023-05-02T04:25:03;12.47;;;4.80;;
19358;SDS011;9815;52.334;20.890;2023-05-02T04:27:33;9.60;;;3.97;;
19358;SDS011;9815;52.334;20.890;2023-05-02T04:30:02;11.67;;;4.67;;
19358;SDS011;9815;52.334;20.890;2023-05-02T04:32:31;12.43;;;4.67;;
19358;SDS011;9815;52.334;20.890;2023-05-02T04:35:02;11.73;;;4.43;;
19358;SDS011;9815;52.334;20.890;2023-05-02T04:37:30;11.30;;;4.80;;
19358;SDS011;9815;52.334;20.890;2023-05-02T04:39:59;13.77;;;4.83;;
19358;SDS011;9815;52.334;20.890;2023-05-02T04:42:30;10.87;;;4.70;;
19358;SDS011;9815;52.334;20.890;2023-05-02T04:45:21;9.70;;;4.80;;
19358;SDS011;9815;52.334;20.890;2023-05-02T04:47:50;14.70;;;4.37;;
19358;SDS011;9815;52.334;20.890;2023-05-02T04:50:19;8.50;;;4.17;;
19358;SDS011;9815;52.334;20.890;2023-05-02T04:52:47;11.47;;;4.67;;
19358;SDS011;9815;52.334;20.890;2023-05-02T04:55:15;8.80;;;4.23;;
19358;SDS011;9815;52.334;20.890;2023-05-02T04:57:45;8.67;;;4.13;;
19358;SDS011;9815;52.334;20.890;2023-05-02T05:00:15;13.03;;;4.50;;
19358;SDS011;9815;52.334;20.890;2023-05-02T05:02:43;11.27;;;4.30;;
19358;SDS011;9815;52.334;20.890;2023-05-02T05:05:13;11.53;;;4.60;;
19358;SDS011;9815;52.334;20.890;2023-05-02T05:07:41;12.70;;;4.60;;
19358;SDS011;9815;52.334;20.890;2023-05-02T05:10:11;11.60;;;5.00;;
19358;SDS011;9815;52.334;20.890;2023-05-02T05:12:44;9.10;;;3.90;;
19358;SDS011;9815;52.334;20.890;2023-05-02T05:15:14;8.90;;;4.43;;
19358;SDS011;9815;52.334;20.890;2023-05-02T05:17:48;8.40;;;4.03;;
19358;SDS011;9815;52.334;20.890;2023-05-02T05:20:16;10.43;;;4.47;;
19358;SDS011;9815;52.334;20.890;2023-05-02T05:22:47;10.77;;;4.53;;
19358;SDS011;9815;52.334;20.890;2023-05-02T05:25:17;9.43;;;4.10;;
19358;SDS011;9815;52.334;20.890;2023-05-02T05:27:49;9.50;;;4.40;;
19358;SDS011;9815;52.334;20.890;2023-05-02T05:30:18;6.27;;;3.90;;
19358;SDS011;9815;52.334;20.890;2023-05-02T05:32:46;9.63;;;4.30;;
19358;SDS011;9815;52.334;20.890;2023-05-02T05:35:15;11.27;;;5.03;;
19358;SDS011;9815;52.334;20.890;2023-05-02T05:37:43;11.57;;;4.70;;
19358;SDS011;9815;52.334;20.890;2023-05-02T05:40:14;13.07;;;4.60;;
19358;SDS011;9815;52.334;20.890;2023-05-02T05:42:46;9.00;;;4.27;;
19358;SDS011;9815;52.334;20.890;2023-05-02T05:45:22;10.20;;;4.43;;
19358;SDS011;9815;52.334;20.890;2023-05-02T05:47:52;8.73;;;4.00;;
19358;SDS011;9815;52.334;20.890;2023-05-02T05:50:24;7.93;;;4.13;;
19358;SDS011;9815;52.334;20.890;2023-05-02T05:52:53;10.00;;;4.20;;
19358;SDS011;9815;52.334;20.890;2023-05-02T05:55:21;8.63;;;3.83;;
19358;SDS011;9815;52.334;20.890;2023-05-02T05:57:49;7.73;;;3.73;;
19358;SDS011;9815;52.334;20.890;2023-05-02T06:00:17;10.67;;;4.47;;
19358;SDS011;9815;52.334;20.890;2023-05-02T06:02:50;10.70;;;3.83;;
19358;SDS011;9815;52.334;20.890;2023-05-02T06:05:25;9.07;;;4.37;;
19358;SDS011;9815;52.334;20.890;2023-05-02T06:07:53;8.03;;;3.83;;
19358;SDS011;9815;52.334;20.890;2023-05-02T06:10:21;8.37;;;4.03;;
19358;SDS011;9815;52.334;20.890;2023-05-02T06:12:50;8.30;;;3.80;;
19358;SDS011;9815;52.334;20.890;2023-05-02T06:15:23;8.97;;;4.00;;
19358;SDS011;9815;52.334;20.890;2023-05-02T06:17:52;7.73;;;3.80;;
19358;SDS011;9815;52.334;20.890;2023-05-02T06:20:20;9.63;;;3.93;;
19358;SDS011;9815;52.334;20.890;2023-05-02T06:22:48;9.73;;;3.90;;
19358;SDS011;9815;52.334;20.890;2023-05-02T06:25:17;12.47;;;4.10;;
19358;SDS011;9815;52.334;20.890;2023-05-02T06:27:45;11.60;;;4.30;;
19358;SDS011;9815;52.334;20.890;2023-05-02T06:30:13;7.53;;;4.07;;
19358;SDS011;9815;52.334;20.890;2023-05-02T06:32:42;8.47;;;4.13;;
19358;SDS011;9815;52.334;20.890;2023-05-02T06:35:12;6.77;;;3.53;;
19358;SDS011;9815;52.334;20.890;2023-05-02T06:37:40;8.30;;;3.50;;
19358;SDS011;9815;52.334;20.890;2023-05-02T06:40:09;11.93;;;3.80;;
19358;SDS011;9815;52.334;20.890;2023-05-02T06:42:38;10.30;;;4.20;;
19358;SDS011;9815;52.334;20.890;2023-05-02T06:45:07;10.13;;;3.90;;
19358;SDS011;9815;52.334;20.890;2023-05-02T06:47:35;6.27;;;3.60;;
19358;SDS011;9815;52.334;20.890;2023-05-02T06:50:04;7.57;;;3.70;;
19358;SDS011;9815;52.334;20.890;2023-05-02T06:52:34;9.97;;;3.87;;
19358;SDS011;9815;52.334;20.890;2023-05-02T06:55:02;7.83;;;3.63;;
19358;SDS011;9815;52.334;20.890;2023-05-02T06:57:31;12.93;;;3.70;;
19358;SDS011;9815;52.334;20.890;2023-05-02T06:59:59;8.40;;;3.63;;
19358;SDS011;9815;52.334;20.890;2023-05-02T07:02:29;8.47;;;3.40;;
19358;SDS011;9815;52.334;20.890;2023-05-02T07:04:57;8.73;;;3.70;;
19358;SDS011;9815;52.334;20.890;2023-05-02T07:07:25;9.13;;;3.63;;
19358;SDS011;9815;52.334;20.890;2023-05-02T07:09:55;6.80;;;3.90;;
19358;SDS011;9815;52.334;20.890;2023-05-02T07:12:24;10.10;;;3.97;;
19358;SDS011;9815;52.334;20.890;2023-05-02T07:14:52;6.67;;;3.20;;
19358;SDS011;9815;52.334;20.890;2023-05-02T07:17:20;5.37;;;2.93;;
19358;SDS011;9815;52.334;20.890;2023-05-02T07:19:49;6.77;;;3.20;;
19358;SDS011;9815;52.334;20.890;2023-05-02T07:22:17;5.03;;;2.53;;
19358;SDS011;9815;52.334;20.890;2023-05-02T07:24:46;4.23;;;2.40;;
19358;SDS011;9815;52.334;20.890;2023-05-02T07:27:15;5.23;;;2.40;;
19358;SDS011;9815;52.334;20.890;2023-05-02T07:29:43;5.60;;;2.40;;
19358;SDS011;9815;52.334;20.890;2023-05-02T07:32:11;3.93;;;2.30;;
19358;SDS011;9815;52.334;20.890;2023-05-02T07:34:39;4.53;;;2.23;;
19358;SDS011;9815;52.334;20.890;2023-05-02T07:37:07;6.30;;;2.33;;
19358;SDS011;9815;52.334;20.890;2023-05-02T07:39:36;5.10;;;2.50;;
19358;SDS011;9815;52.334;20.890;2023-05-02T07:42:04;6.50;;;2.57;;
19358;SDS011;9815;52.334;20.890;2023-05-02T07:44:34;5.37;;;2.30;;
19358;SDS011;9815;52.334;20.890;2023-05-02T07:47:02;7.63;;;2.40;;
19358;SDS011;9815;52.334;20.890;2023-05-02T07:49:30;8.00;;;2.80;;
19358;SDS011;9815;52.334;20.890;2023-05-02T07:51:58;4.37;;;2.60;;
19358;SDS011;9815;52.334;20.890;2023-05-02T07:54:26;5.40;;;2.80;;
19358;SDS011;9815;52.334;20.890;2023-05-02T07:56:54;5.47;;;2.80;;
19358;SDS011;9815;52.334;20.890;2023-05-02T07:59:24;4.33;;;2.80;;
19358;SDS011;9815;52.334;20.890;2023-05-02T08:01:53;4.87;;;2.60;;
19358;SDS011;9815;52.334;20.890;2023-05-02T08:04:21;6.73;;;2.87;;
19358;SDS011;9815;52.334;20.890;2023-05-02T08:06:50;4.33;;;2.77;;
19358;SDS011;9815;52.334;20.890;2023-05-02T08:09:18;7.67;;;3.30;;
19358;SDS011;9815;52.334;20.890;2023-05-02T08:11:46;5.13;;;2.83;;
19358;SDS011;9815;52.334;20.890;2023-05-02T08:14:14;6.57;;;3.33;;
19358;SDS011;9815;52.334;20.890;2023-05-02T08:16:42;5.80;;;2.90;;
19358;SDS011;9815;52.334;20.890;2023-05-02T08:19:13;7.37;;;3.30;;
19358;SDS011;9815;52.334;20.890;2023-05-02T08:21:41;8.23;;;3.30;;
19358;SDS011;9815;52.334;20.890;2023-05-02T08:24:09;8.13;;;3.53;;
19358;SDS011;9815;52.334;20.890;2023-05-02T08:26:37;7.37;;;3.13;;
19358;SDS011;9815;52.334;20.890;2023-05-02T08:29:05;8.20;;;3.50;;
19358;SDS011;9815;52.334;20.890;2023-05-02T08:31:36;4.93;;;2.97;;
19358;SDS011;9815;52.334;20.890;2023-05-02T08:34:05;9.20;;;3.30;;
19358;SDS011;9815;52.334;20.890;2023-05-02T08:36:34;10.23;;;3.37;;
19358;SDS011;9815;52.334;20.890;2023-05-02T08:39:03;6.83;;;3.23;;
19358;SDS011;9815;52.334;20.890;2023-05-02T08:41:33;7.93;;;3.27;;
19358;SDS011;9815;52.334;20.890;2023-05-02T08:44:01;9.70;;;3.20;;
19358;SDS011;9815;52.334;20.890;2023-05-02T08:46:30;9.27;;;4.40;;
19358;SDS011;9815;52.334;20.890;2023-05-02T08:49:01;13.17;;;3.80;;
19358;SDS011;9815;52.334;20.890;2023-05-02T08:51:31;7.77;;;3.40;;
19358;SDS011;9815;52.334;20.890;2023-05-02T08:54:03;7.73;;;3.57;;
19358;SDS011;9815;52.334;20.890;2023-05-02T08:56:36;6.90;;;3.50;;
19358;SDS011;9815;52.334;20.890;2023-05-02T08:59:05;6.77;;;3.87;;
19358;SDS011;9815;52.334;20.890;2023-05-02T09:01:34;7.17;;;4.10;;
19358;SDS011;9815;52.334;20.890;2023-05-02T09:04:03;6.87;;;3.57;;
19358;SDS011;9815;52.334;20.890;2023-05-02T09:06:32;5.63;;;3.30;;
19358;SDS011;9815;52.334;20.890;2023-05-02T09:09:00;8.57;;;3.60;;
19358;SDS011;9815;52.334;20.890;2023-05-02T09:11:30;9.60;;;4.37;;
19358;SDS011;9815;52.334;20.890;2023-05-02T09:13:58;8.50;;;4.23;;
19358;SDS011;9815;52.334;20.890;2023-05-02T09:16:29;7.63;;;4.10;;
19358;SDS011;9815;52.334;20.890;2023-05-02T09:19:06;8.03;;;4.17;;
19358;SDS011;9815;52.334;20.890;2023-05-02T09:21:37;8.13;;;4.23;;
19358;SDS011;9815;52.334;20.890;2023-05-02T09:26:59;7.23;;;3.67;;
19358;SDS011;9815;52.334;20.890;2023-05-02T09:29:28;6.20;;;4.10;;
19358;SDS011;9815;52.334;20.890;2023-05-02T09:32:01;8.10;;;4.37;;
19358;SDS011;9815;52.334;20.890;2023-05-02T09:34:30;9.30;;;4.43;;
19358;SDS011;9815;52.334;20.890;2023-05-02T09:36:59;12.77;;;4.50;;
19358;SDS011;9815;52.334;20.890;2023-05-02T09:39:29;9.37;;;3.83;;
19358;SDS011;9815;52.334;20.890;2023-05-02T09:41:58;7.27;;;3.90;;
19358;SDS011;9815;52.334;20.890;2023-05-02T09:44:35;8.63;;;4.03;;
19358;SDS011;9815;52.334;20.890;2023-05-02T09:47:04;6.63;;;4.00;;
19358;SDS011;9815;52.334;20.890;2023-05-02T09:49:38;7.40;;;4.07;;
19358;SDS011;9815;52.334;20.890;2023-05-02T09:52:10;6.57;;;4.23;;
19358;SDS011;9815;52.334;20.890;2023-05-02T09:54:39;12.03;;;4.03;;
19358;SDS011;9815;52.334;20.890;2023-05-02T09:57:09;7.07;;;3.90;;
19358;SDS011;9815;52.334;20.890;2023-05-02T09:59:37;9.00;;;4.23;;
19358;SDS011;9815;52.334;20.890;2023-05-02T10:02:06;12.90;;;4.53;;
19358;SDS011;9815;52.334;20.890;2023-05-02T10:04:37;9.53;;;4.13;;
19358;SDS011;9815;52.334;20.890;2023-05-02T10:07:07;7.00;;;3.90;;
19358;SDS011;9815;52.334;20.890;2023-05-02T10:09:38;7.77;;;3.80;;
19358;SDS011;9815;52.334;20.890;2023-05-02T10:12:12;13.23;;;4.80;;
19358;SDS011;9815;52.334;20.890;2023-05-02T10:14:44;10.00;;;4.77;;
19358;SDS011;9815;52.334;20.890;2023-05-02T10:17:19;7.53;;;4.67;;
19358;SDS011;9815;52.334;20.890;2023-05-02T10:19:54;10.80;;;4.80;;
19358;SDS011;9815;52.334;20.890;2023-05-02T10:22:26;7.73;;;4.40;;
19358;SDS011;9815;52.334;20.890;2023-05-02T10:24:55;5.73;;;4.27;;
19358;SDS011;9815;52.334;20.890;2023-05-02T10:27:26;7.40;;;3.33;;
19358;SDS011;9815;52.334;20.890;2023-05-02T10:29:56;8.30;;;3.70;;
19358;SDS011;9815;52.334;20.890;2023-05-02T10:32:26;8.27;;;3.80;;
19358;SDS011;9815;52.334;20.890;2023-05-02T10:34:55;6.13;;;4.00;;
19358;SDS011;9815;52.334;20.890;2023-05-02T10:37:24;7.07;;;4.73;;
19358;SDS011;9815;52.334;20.890;2023-05-02T10:39:53;7.47;;;4.40;;
19358;SDS011;9815;52.334;20.890;2023-05-02T10:42:22;7.57;;;4.47;;
19358;SDS011;9815;52.334;20.890;2023-05-02T10:44:51;9.73;;;4.77;;
19358;SDS011;9815;52.334;20.890;2023-05-02T10:47:20;8.13;;;4.70;;
19358;SDS011;9815;52.334;20.890;2023-05-02T10:49:49;9.50;;;5.70;;
19358;SDS011;9815;52.334;20.890;2023-05-02T10:52:25;10.10;;;5.80;;
19358;SDS011;9815;52.334;20.890;2023-05-02T10:55:12;12.50;;;5.33;;
19358;SDS011;9815;52.334;20.890;2023-05-02T11:00:50;10.33;;;6.13;;
19358;SDS011;9815;52.334;20.890;2023-05-02T11:06:21;14.67;;;6.33;;
19358;SDS011;9815;52.334;20.890;2023-05-02T11:08:49;12.47;;;7.07;;
19358;SDS011;9815;52.334;20.890;2023-05-02T11:14:06;11.03;;;6.97;;
19358;SDS011;9815;52.334;20.890;2023-05-02T11:22:49;13.73;;;7.80;;
19358;SDS011;9815;52.334;20.890;2023-05-02T11:25:34;13.73;;;8.10;;
19358;SDS011;9815;52.334;20.890;2023-05-02T11:28:06;12.37;;;8.30;;
19358;SDS011;9815;52.334;20.890;2023-05-02T11:30:35;14.20;;;8.20;;
19358;SDS011;9815;52.334;20.890;2023-05-02T11:33:15;13.77;;;8.73;;
19358;SDS011;9815;52.334;20.890;2023-05-02T11:35:46;14.70;;;8.73;;
19358;SDS011;9815;52.334;20.890;2023-05-02T11:38:16;14.70;;;8.47;;
19358;SDS011;9815;52.334;20.890;2023-05-02T11:40:49;13.57;;;8.40;;
19358;SDS011;9815;52.334;20.890;2023-05-02T11:43:19;13.37;;;8.40;;
19358;SDS011;9815;52.334;20.890;2023-05-02T11:45:48;15.20;;;9.20;;
19358;SDS011;9815;52.334;20.890;2023-05-02T11:48:18;16.00;;;9.60;;
19358;SDS011;9815;52.334;20.890;2023-05-02T11:50:48;16.20;;;9.47;;
19358;SDS011;9815;52.334;20.890;2023-05-02T11:53:19;24.57;;;11.73;;
19358;SDS011;9815;52.334;20.890;2023-05-02T11:55:49;22.17;;;11.50;;
19358;SDS011;9815;52.334;20.890;2023-05-02T11:58:19;19.90;;;11.30;;
19358;SDS011;9815;52.334;20.890;2023-05-02T12:00:51;17.53;;;9.80;;
19358;SDS011;9815;52.334;20.890;2023-05-02T12:03:21;14.33;;;9.03;;
19358;SDS011;9815;52.334;20.890;2023-05-02T12:05:51;12.90;;;7.83;;
19358;SDS011;9815;52.334;20.890;2023-05-02T12:08:20;13.30;;;8.10;;
19358;SDS011;9815;52.334;20.890;2023-05-02T12:10:49;12.40;;;7.77;;
19358;SDS011;9815;52.334;20.890;2023-05-02T12:13:19;12.97;;;7.87;;
19358;SDS011;9815;52.334;20.890;2023-05-02T12:15:48;12.03;;;7.60;;
19358;SDS011;9815;52.334;20.890;2023-05-02T12:18:18;12.37;;;7.03;;
19358;SDS011;9815;52.334;20.890;2023-05-02T12:20:51;9.70;;;5.40;;
19358;SDS011;9815;52.334;20.890;2023-05-02T12:23:20;8.33;;;4.50;;
19358;SDS011;9815;52.334;20.890;2023-05-02T12:25:50;9.60;;;4.67;;
19358;SDS011;9815;52.334;20.890;2023-05-02T12:28:19;9.33;;;4.63;;
19358;SDS011;9815;52.334;20.890;2023-05-02T12:30:49;12.67;;;5.13;;
19358;SDS011;9815;52.334;20.890;2023-05-02T12:33:18;9.10;;;4.43;;
19358;SDS011;9815;52.334;20.890;2023-05-02T12:35:46;8.03;;;4.20;;
19358;SDS011;9815;52.334;20.890;2023-05-02T12:38:16;9.27;;;4.60;;
19358;SDS011;9815;52.334;20.890;2023-05-02T12:40:46;7.53;;;4.67;;
19358;SDS011;9815;52.334;20.890;2023-05-02T12:43:15;7.33;;;4.30;;
19358;SDS011;9815;52.334;20.890;2023-05-02T12:45:43;7.40;;;4.23;;
19358;SDS011;9815;52.334;20.890;2023-05-02T12:48:17;7.70;;;4.20;;
19358;SDS011;9815;52.334;20.890;2023-05-02T12:50:50;7.37;;;4.30;;
19358;SDS011;9815;52.334;20.890;2023-05-02T12:53:40;5.83;;;3.83;;
19358;SDS011;9815;52.334;20.890;2023-05-02T12:56:09;7.93;;;4.23;;
19358;SDS011;9815;52.334;20.890;2023-05-02T12:58:42;8.10;;;4.13;;
19358;SDS011;9815;52.334;20.890;2023-05-02T13:01:12;8.43;;;4.10;;
19358;SDS011;9815;52.334;20.890;2023-05-02T13:03:40;7.73;;;4.13;;
19358;SDS011;9815;52.334;20.890;2023-05-02T13:06:09;8.13;;;3.87;;
19358;SDS011;9815;52.334;20.890;2023-05-02T13:08:37;6.63;;;3.50;;
19358;SDS011;9815;52.334;20.890;2023-05-02T13:11:06;6.90;;;3.30;;
19358;SDS011;9815;52.334;20.890;2023-05-02T13:13:34;7.20;;;3.40;;
19358;SDS011;9815;52.334;20.890;2023-05-02T13:16:03;5.57;;;3.30;;
19358;SDS011;9815;52.334;20.890;2023-05-02T13:18:31;9.47;;;3.67;;
19358;SDS011;9815;52.334;20.890;2023-05-02T13:20:59;6.20;;;3.17;;
19358;SDS011;9815;52.334;20.890;2023-05-02T13:23:27;6.97;;;3.17;;
19358;SDS011;9815;52.334;20.890;2023-05-02T13:25:55;6.00;;;2.87;;
19358;SDS011;9815;52.334;20.890;2023-05-02T13:28:25;7.27;;;3.50;;
19358;SDS011;9815;52.334;20.890;2023-05-02T13:30:54;7.27;;;3.10;;
19358;SDS011;9815;52.334;20.890;2023-05-02T13:33:22;5.87;;;3.37;;
19358;SDS011;9815;52.334;20.890;2023-05-02T13:35:50;8.80;;;4.60;;
19358;SDS011;9815;52.334;20.890;2023-05-02T13:38:19;8.40;;;3.40;;
19358;SDS011;9815;52.334;20.890;2023-05-02T13:40:47;6.70;;;3.80;;
19358;SDS011;9815;52.334;20.890;2023-05-02T13:43:16;5.77;;;3.23;;
19358;SDS011;9815;52.334;20.890;2023-05-02T13:45:45;5.97;;;3.37;;
19358;SDS011;9815;52.334;20.890;2023-05-02T13:48:14;8.33;;;3.20;;
19358;SDS011;9815;52.334;20.890;2023-05-02T13:50:42;7.07;;;3.60;;
19358;SDS011;9815;52.334;20.890;2023-05-02T13:53:10;5.47;;;3.30;;
19358;SDS011;9815;52.334;20.890;2023-05-02T13:55:38;7.50;;;3.60;;
19358;SDS011;9815;52.334;20.890;2023-05-02T13:58:07;5.60;;;3.40;;
19358;SDS011;9815;52.334;20.890;2023-05-02T14:00:35;8.27;;;3.33;;
19358;SDS011;9815;52.334;20.890;2023-05-02T14:03:04;6.93;;;3.33;;
19358;SDS011;9815;52.334;20.890;2023-05-02T14:05:33;9.50;;;3.10;;
19358;SDS011;9815;52.334;20.890;2023-05-02T14:08:01;7.60;;;3.40;;
19358;SDS011;9815;52.334;20.890;2023-05-02T14:10:30;8.73;;;3.70;;
19358;SDS011;9815;52.334;20.890;2023-05-02T14:12:58;6.70;;;3.20;;
19358;SDS011;9815;52.334;20.890;2023-05-02T14:15:26;8.37;;;3.50;;
19358;SDS011;9815;52.334;20.890;2023-05-02T14:17:54;7.00;;;3.77;;
19358;SDS011;9815;52.334;20.890;2023-05-02T14:20:23;6.03;;;3.30;;
19358;SDS011;9815;52.334;20.890;2023-05-02T14:22:52;7.37;;;4.03;;
19358;SDS011;9815;52.334;20.890;2023-05-02T14:25:20;6.47;;;3.63;;
19358;SDS011;9815;52.334;20.890;2023-05-02T14:27:48;5.60;;;3.20;;
19358;SDS011;9815;52.334;20.890;2023-05-02T14:30:16;6.60;;;3.40;;
19358;SDS011;9815;52.334;20.890;2023-05-02T14:32:44;6.33;;;3.60;;
19358;SDS011;9815;52.334;20.890;2023-05-02T14:35:12;7.23;;;3.47;;
19358;SDS011;9815;52.334;20.890;2023-05-02T14:37:42;6.20;;;3.53;;
19358;SDS011;9815;52.334;20.890;2023-05-02T14:40:12;5.33;;;3.60;;
19358;SDS011;9815;52.334;20.890;2023-05-02T14:42:41;8.60;;;3.60;;
19358;SDS011;9815;52.334;20.890;2023-05-02T14:45:09;8.90;;;3.80;;
19358;SDS011;9815;52.334;20.890;2023-05-02T14:47:37;7.10;;;3.77;;
19358;SDS011;9815;52.334;20.890;2023-05-02T14:50:06;5.40;;;3.77;;
19358;SDS011;9815;52.334;20.890;2023-05-02T14:52:34;9.37;;;3.90;;
19358;SDS011;9815;52.334;20.890;2023-05-02T14:55:04;9.00;;;4.00;;
19358;SDS011;9815;52.334;20.890;2023-05-02T14:57:33;7.73;;;4.10;;
19358;SDS011;9815;52.334;20.890;2023-05-02T15:00:01;9.83;;;4.20;;
19358;SDS011;9815;52.334;20.890;2023-05-02T15:02:31;8.67;;;4.30;;
19358;SDS011;9815;52.334;20.890;2023-05-02T15:04:59;9.90;;;5.87;;
19358;SDS011;9815;52.334;20.890;2023-05-02T15:07:27;8.50;;;5.00;;
19358;SDS011;9815;52.334;20.890;2023-05-02T15:09:55;9.00;;;4.87;;
19358;SDS011;9815;52.334;20.890;2023-05-02T15:12:24;9.97;;;4.30;;
19358;SDS011;9815;52.334;20.890;2023-05-02T15:14:52;7.83;;;4.27;;
19358;SDS011;9815;52.334;20.890;2023-05-02T15:17:20;7.57;;;4.10;;